Time;durP1;ratioP1;P1;durP2;ratioP2;P2;SDS_P1;SDS_P2;PMS_P1;PMS_P2;Temp;Humidity;BMP_temperature;BMP_pressure;BME280_temperature;BME280_humidity;BME280_pressure;Samples;Min_cycle;Max_cycle;Signal;HPM_P1;HPM_P2
2022/11/26 00:00:59;;;;;;;41.40;14.43;;;;;;;6.54;87.86;102185.19;5135563;27;20188;-67
2022/11/26 00:03:25;;;;;;;32.43;13.90;;;;;;;6.50;88.27;102194.19;5135182;27;20208;-67
2022/11/26 00:05:55;;;;;;;36.47;14.73;;;;;;;6.47;87.88;102188.09;5135143;27;20197;-67
2022/11/26 00:08:29;;;;;;;39.07;15.13;;;;;;;6.47;88.28;102193.41;5135746;27;20173;-67
2022/11/26 00:10:56;;;;;;;40.33;15.20;;;;;;;6.46;88.48;102184.53;5135398;27;20172;-67
2022/11/26 00:13:25;;;;;;;27.50;14.83;;;;;;;6.51;88.65;102187.97;5135021;27;20212;-67
2022/11/26 00:15:52;;;;;;;34.53;14.57;;;;;;;6.57;88.51;102187.75;5134975;27;20180;-67
2022/11/26 00:18:19;;;;;;;42.10;15.20;;;;;;;6.57;87.95;102192.22;5134914;27;20674;-67
2022/11/26 00:20:52;;;;;;;41.57;14.67;;;;;;;6.52;88.13;102195.00;5135094;27;20206;-67
2022/11/26 00:23:23;;;;;;;36.10;14.50;;;;;;;6.54;88.12;102193.19;5134811;27;20295;-67
2022/11/26 00:25:53;;;;;;;39.10;14.40;;;;;;;6.52;88.34;102199.47;5135092;27;20202;-67
2022/11/26 00:28:26;;;;;;;23.10;12.30;;;;;;;6.55;88.17;102204.69;5135393;27;20180;-67
2022/11/26 00:30:55;;;;;;;41.07;15.30;;;;;;;6.49;87.88;102210.19;5135044;27;20173;-67
2022/11/26 00:33:22;;;;;;;39.50;15.70;;;;;;;6.46;88.07;102213.81;5134630;27;20686;-67
2022/11/26 00:35:51;;;;;;;35.47;15.30;;;;;;;6.41;88.12;102214.88;5134950;27;20196;-67
2022/11/26 00:38:20;;;;;;;31.83;14.60;;;;;;;6.40;87.95;102214.03;5134929;27;20188;-67
2022/11/26 00:40:46;;;;;;;29.10;14.97;;;;;;;6.36;88.07;102221.22;5135133;27;20529;-67
2022/11/26 00:43:15;;;;;;;43.00;15.33;;;;;;;6.34;88.06;102231.03;5134735;27;20217;-67
2022/11/26 00:45:41;;;;;;;27.03;14.13;;;;;;;6.34;88.13;102231.03;5134468;27;20209;-67
2022/11/26 00:48:07;;;;;;;39.63;15.90;;;;;;;6.30;87.94;102234.72;5134543;27;20200;-67
2022/11/26 00:50:42;;;;;;;43.63;15.13;;;;;;;6.34;87.25;102239.00;5134487;27;20189;-67
2022/11/26 00:53:12;;;;;;;33.13;14.33;;;;;;;6.37;88.10;102230.09;5134422;27;20215;-67
2022/11/26 00:55:42;;;;;;;29.80;15.27;;;;;;;6.23;88.04;102233.16;5134706;27;20261;-67
2022/11/26 00:58:21;;;;;;;46.07;16.27;;;;;;;6.25;88.38;102233.97;5134925;27;20530;-67
2022/11/26 01:00:47;;;;;;;30.10;14.67;;;;;;;6.24;88.34;102242.00;5134674;27;20519;-67
2022/11/26 01:03:14;;;;;;;35.17;16.40;;;;;;;6.30;88.46;102240.03;5134268;27;20234;-67
2022/11/26 01:05:40;;;;;;;32.70;15.20;;;;;;;6.32;88.62;102251.50;5134780;27;20219;-67
2022/11/26 01:08:33;;;;;;;45.90;18.03;;;;;;;6.37;88.57;102262.88;5134562;27;20195;-67
2022/11/26 01:11:02;;;;;;;41.90;19.07;;;;;;;6.32;88.54;102266.56;5134573;28;20181;-67
2022/11/26 01:13:29;;;;;;;40.67;20.33;;;;;;;6.34;88.43;102267.41;5134149;28;20204;-67
2022/11/26 01:15:57;;;;;;;49.27;19.50;;;;;;;6.32;88.58;102267.47;5134189;28;20187;-67
2022/11/26 01:18:23;;;;;;;70.20;24.33;;;;;;;6.41;88.61;102273.44;5134428;28;20180;-67
2022/11/26 01:20:50;;;;;;;61.17;23.87;;;;;;;6.41;88.50;102276.94;5134457;28;20196;-67
2022/11/26 01:23:18;;;;;;;73.73;26.30;;;;;;;6.45;88.85;102275.09;5134013;28;20227;-67
2022/11/26 01:25:45;;;;;;;73.90;30.80;;;;;;;6.52;88.54;102274.84;5134272;28;20212;-67
2022/11/26 01:28:17;;;;;;;74.80;32.00;;;;;;;6.52;88.48;102281.97;5134354;28;20180;-67
2022/11/26 01:30:44;;;;;;;76.70;34.80;;;;;;;6.47;87.80;102282.09;5134386;28;20626;-67
2022/11/26 01:33:10;;;;;;;89.03;34.77;;;;;;;6.48;87.98;102282.97;5134403;28;20205;-67
2022/11/26 01:35:36;;;;;;;83.07;33.90;;;;;;;6.47;87.99;102286.56;5134274;28;20173;-67
2022/11/26 01:38:03;;;;;;;68.93;31.30;;;;;;;6.44;88.13;102297.28;5133951;28;20193;-67
2022/11/26 01:40:35;;;;;;;67.20;23.83;;;;;;;6.54;87.66;102285.47;5134538;28;20660;-67
2022/11/26 01:43:14;;;;;;;56.83;22.77;;;;;;;6.47;87.60;102282.09;5134394;28;20574;-67
2022/11/26 01:45:40;;;;;;;50.63;21.07;;;;;;;6.45;87.68;102289.25;5134441;28;20203;-67
2022/11/26 01:48:32;;;;;;;69.63;20.90;;;;;;;6.33;87.51;102281.63;5133930;28;20181;-67
2022/11/26 01:51:09;;;;;;;37.17;16.80;;;;;;;6.38;87.65;102301.88;5134179;28;20537;-67
2022/11/26 01:53:46;;;;;;;38.50;17.87;;;;;;;6.36;87.92;102292.19;5135019;27;20215;-67
2022/11/26 01:56:16;;;;;;;36.73;17.67;;;;;;;6.40;87.65;102285.88;5138378;27;20176;-67
2022/11/26 01:58:47;;;;;;;47.43;18.20;;;;;;;6.33;87.86;102286.97;5138019;27;20203;-67
2022/11/26 02:01:14;;;;;;;34.07;17.23;;;;;;;6.33;87.98;102279.84;5119358;27;20620;-67
2022/11/26 02:03:52;;;;;;;45.47;17.50;;;;;;;6.33;87.80;102284.31;5137821;27;20196;-67
2022/11/26 02:06:25;;;;;;;43.50;16.40;;;;;;;6.38;88.17;102285.03;5138397;27;20291;-67
2022/11/26 02:08:52;;;;;;;45.03;17.77;;;;;;;6.36;88.08;102285.06;5138139;27;20183;-67
2022/11/26 02:11:22;;;;;;;45.60;16.70;;;;;;;6.38;88.00;102283.25;5137785;27;20188;-67
2022/11/26 02:13:52;;;;;;;40.00;15.27;;;;;;;6.36;87.66;102290.38;5137930;27;20219;-67
2022/11/26 02:16:55;;;;;;;29.07;14.63;;;;;;;6.34;87.41;102286.91;5137466;27;20177;-67
2022/11/26 02:19:41;;;;;;;42.33;14.37;;;;;;;6.38;87.39;102280.56;5137391;27;20234;-67
2022/11/26 02:22:37;;;;;;;26.83;14.30;;;;;;;6.29;87.09;102283.50;5137311;27;20589;-65
2022/11/26 02:25:29;;;;;;;30.47;13.70;;;;;;;6.18;87.21;102290.94;5092469;27;20205;-65
2022/11/26 02:28:04;;;;;;;28.67;15.70;;;;;;;6.04;86.72;102293.09;5137805;27;20260;-65
2022/11/26 02:30:35;;;;;;;32.07;14.27;;;;;;;6.00;87.38;102292.31;5137479;27;20260;-65
2022/11/26 02:33:21;;;;;;;30.60;15.10;;;;;;;5.92;87.01;102295.16;5137027;27;20213;-65
2022/11/26 02:36:00;;;;;;;25.10;13.83;;;;;;;5.83;87.06;102292.72;5137407;27;20173;-65
2022/11/26 02:38:29;;;;;;;20.53;12.63;;;;;;;5.74;87.14;102291.19;5137037;27;20173;-65
2022/11/26 02:40:56;;;;;;;20.33;11.90;;;;;;;5.73;87.37;102293.91;5137224;27;20706;-65
2022/11/26 02:43:24;;;;;;;28.07;11.70;;;;;;;5.74;87.54;102298.28;5137109;27;20573;-65
2022/11/26 02:46:00;;;;;;;27.93;13.40;;;;;;;5.76;87.70;102293.81;5118355;27;20223;-65
2022/11/26 02:48:33;;;;;;;30.80;14.37;;;;;;;5.74;87.51;102285.84;5137052;27;20172;-65
2022/11/26 02:51:06;;;;;;;39.07;17.17;;;;;;;5.76;87.25;102289.34;5137231;27;20256;-65
2022/11/26 02:53:34;;;;;;;28.50;17.57;;;;;;;5.77;87.54;102282.28;5136729;27;20218;-65
2022/11/26 02:56:18;;;;;;;30.57;15.40;;;;;;;5.76;87.48;102281.38;5136560;27;20263;-65
2022/11/26 02:58:44;;;;;;;29.10;15.83;;;;;;;5.78;87.53;102281.34;5136601;27;20177;-65
2022/11/26 03:01:18;;;;;;;31.77;16.00;;;;;;;5.78;87.79;102276.03;5136541;27;20184;-65
2022/11/26 03:03:49;;;;;;;33.77;15.93;;;;;;;5.80;87.83;102274.22;5136607;27;20207;-65
2022/11/26 03:06:17;;;;;;;37.10;17.73;;;;;;;5.85;87.64;102276.75;5136678;27;20199;-65
2022/11/26 03:08:44;;;;;;;27.00;14.87;;;;;;;5.89;87.52;102281.94;5136688;27;20188;-65
2022/11/26 03:11:11;;;;;;;33.70;16.83;;;;;;;5.88;87.72;102295.25;5136617;27;20346;-65
2022/11/26 03:13:37;;;;;;;19.50;12.77;;;;;;;5.87;87.67;102289.09;5136850;27;20222;-65
2022/11/26 03:16:04;;;;;;;28.10;12.80;;;;;;;5.85;87.18;102292.69;5136559;27;20538;-65
2022/11/26 03:18:30;;;;;;;22.57;11.93;;;;;;;5.75;87.15;102295.59;5136487;27;20193;-65
2022/11/26 03:20:57;;;;;;;18.30;12.77;;;;;;;5.67;87.31;102299.34;5136424;27;20203;-65
2022/11/26 03:23:23;;;;;;;19.13;13.40;;;;;;;5.65;87.18;102302.06;5136593;27;20236;-65
2022/11/26 03:25:49;;;;;;;25.20;13.83;;;;;;;5.55;87.14;102305.84;5136282;27;20214;-65
2022/11/26 03:28:16;;;;;;;14.00;12.20;;;;;;;5.47;87.23;102300.75;5136068;27;20272;-65
2022/11/26 03:30:42;;;;;;;32.20;17.60;;;;;;;5.40;87.98;102299.16;5136016;27;20189;-65
2022/11/26 03:33:09;;;;;;;31.47;15.30;;;;;;;5.45;87.64;102304.34;5135865;27;20216;-65
2022/11/26 03:35:35;;;;;;;21.10;14.20;;;;;;;5.50;87.74;102307.75;5136169;27;20181;-65
2022/11/26 03:38:01;;;;;;;25.27;13.47;;;;;;;5.53;87.33;102310.34;5135805;27;20654;-65
2022/11/26 03:40:28;;;;;;;26.27;14.13;;;;;;;5.36;87.54;102310.75;5135765;27;20271;-65
2022/11/26 03:42:54;;;;;;;22.27;12.40;;;;;;;5.36;87.49;102320.50;5117212;27;20189;-65
2022/11/26 03:45:21;;;;;;;23.30;12.70;;;;;;;5.33;87.49;102324.13;5135589;27;20180;-65
2022/11/26 03:47:47;;;;;;;14.70;12.03;;;;;;;5.27;87.07;102319.84;5135570;27;20188;-65
2022/11/26 03:50:13;;;;;;;20.03;12.00;;;;;;;5.26;87.57;102333.13;5135584;27;20263;-65
2022/11/26 03:52:40;;;;;;;22.60;12.93;;;;;;;5.26;87.43;102331.34;5135397;27;20184;-66
2022/11/26 03:55:07;;;;;;;22.00;13.37;;;;;;;5.19;87.62;102331.53;5135504;27;20209;-65
2022/11/26 03:57:33;;;;;;;31.53;13.13;;;;;;;5.24;87.77;102334.97;5135371;27;20187;-65
2022/11/26 03:59:59;;;;;;;20.80;11.60;;;;;;;5.19;87.96;102343.03;5135387;27;20188;-65
2022/11/26 04:02:26;;;;;;;33.50;12.50;;;;;;;5.22;87.43;102342.97;5135313;27;20207;-65
2022/11/26 04:04:52;;;;;;;16.40;11.13;;;;;;;5.22;87.85;102353.59;5135200;27;20210;-65
2022/11/26 04:07:19;;;;;;;16.33;11.07;;;;;;;5.31;88.16;102352.50;5135688;27;20681;-65
2022/11/26 04:09:45;;;;;;;20.93;12.60;;;;;;;5.31;88.26;102363.13;5135209;27;20180;-65
2022/11/26 04:12:11;;;;;;;34.00;13.47;;;;;;;5.33;88.55;102361.31;5135446;27;20669;-65
2022/11/26 04:14:38;;;;;;;33.53;13.97;;;;;;;5.38;88.35;102363.84;5135024;27;20208;-65
2022/11/26 04:17:05;;;;;;;25.30;12.03;;;;;;;5.35;88.30;102372.78;5135123;27;20267;-65
2022/11/26 04:19:31;;;;;;;24.23;12.97;;;;;;;5.33;88.24;102364.81;5135007;27;20189;-65
2022/11/26 04:21:57;;;;;;;18.20;13.13;;;;;;;5.33;88.52;102363.97;5134847;27;20725;-65
2022/11/26 04:24:24;;;;;;;20.23;13.00;;;;;;;5.32;88.18;102368.41;5134865;27;20197;-65
2022/11/26 04:26:50;;;;;;;24.27;13.17;;;;;;;5.31;88.21;102371.09;5134751;27;20566;-65
2022/11/26 04:29:17;;;;;;;23.90;13.07;;;;;;;5.27;88.30;102372.09;5135332;27;20267;-65
2022/11/26 04:31:43;;;;;;;40.33;13.13;;;;;;;5.42;88.39;102385.00;5134772;27;20271;-66
2022/11/26 04:34:09;;;;;;;32.27;13.03;;;;;;;5.46;88.65;102386.69;5134675;27;20204;-66
2022/11/26 04:36:38;;;;;;;38.03;13.43;;;;;;;5.50;88.55;102396.31;5135010;27;20268;-66
2022/11/26 04:39:04;;;;;;;21.93;12.10;;;;;;;5.57;88.19;102396.19;5134700;27;20187;-66
2022/11/26 04:41:30;;;;;;;34.10;12.43;;;;;;;5.48;88.60;102407.88;5135215;27;20276;-66
2022/11/26 04:43:57;;;;;;;31.13;12.53;;;;;;;5.55;88.83;102398.88;5134787;27;20205;-66
2022/11/26 04:46:23;;;;;;;49.50;14.70;;;;;;;5.64;88.99;102396.00;5134803;27;20218;-66
2022/11/26 04:48:50;;;;;;;25.53;13.80;;;;;;;5.64;89.16;102403.09;5134543;27;20188;-66
2022/11/26 04:51:16;;;;;;;20.23;11.93;;;;;;;5.56;88.87;102405.94;5134790;27;20612;-66
2022/11/26 04:53:42;;;;;;;21.07;13.47;;;;;;;5.57;88.95;102407.69;5134978;27;20204;-67
2022/11/26 04:56:09;;;;;;;24.37;14.70;;;;;;;5.62;89.14;102415.53;5134417;27;20212;-67
2022/11/26 04:58:35;;;;;;;29.23;13.33;;;;;;;5.71;89.20;102426.81;5134409;27;20532;-66
2022/11/26 05:01:02;;;;;;;36.13;14.60;;;;;;;5.81;89.09;102432.78;5134671;27;20596;-66
2022/11/26 05:03:28;;;;;;;20.40;13.10;;;;;;;5.85;88.98;102433.59;5134287;27;20287;-67
2022/11/26 05:05:55;;;;;;;15.93;11.20;;;;;;;5.87;89.10;102426.47;5134500;27;20184;-67
2022/11/26 05:08:21;;;;;;;26.83;13.20;;;;;;;5.90;89.02;102429.91;5134344;27;20193;-67
2022/11/26 05:10:53;;;;;;;25.70;12.53;;;;;;;5.88;89.31;102425.53;5134275;27;20181;-67
2022/11/26 05:13:19;;;;;;;27.03;12.83;;;;;;;5.86;89.19;102428.22;5134415;28;20283;-67
2022/11/26 05:15:46;;;;;;;19.83;12.00;;;;;;;5.86;88.71;102427.38;5134228;28;20187;-67
2022/11/26 05:18:12;;;;;;;27.83;11.67;;;;;;;5.79;88.98;102441.72;5134212;28;20274;-67
2022/11/26 05:20:39;;;;;;;16.83;11.63;;;;;;;5.82;89.09;102428.34;5134417;28;20223;-67
2022/11/26 05:23:05;;;;;;;24.00;12.50;;;;;;;5.78;88.98;102432.00;5134365;28;20760;-67
2022/11/26 05:25:31;;;;;;;25.90;13.00;;;;;;;5.75;88.84;102435.63;5134168;28;20206;-67
2022/11/26 05:27:58;;;;;;;23.50;11.07;;;;;;;5.67;88.82;102442.88;5134194;27;20200;-67
2022/11/26 05:30:24;;;;;;;25.73;11.30;;;;;;;5.63;89.02;102443.88;5138622;27;20623;-67
2022/11/26 05:32:51;;;;;;;17.97;10.43;;;;;;;5.64;89.08;102435.84;5138338;27;20180;-67
2022/11/26 05:35:17;;;;;;;22.30;11.43;;;;;;;5.68;88.88;102440.19;5138612;27;20171;-67
2022/11/26 05:37:43;;;;;;;19.47;11.23;;;;;;;5.63;88.87;102443.88;5138709;27;20265;-67
2022/11/26 05:40:10;;;;;;;19.30;11.50;;;;;;;5.63;88.79;102438.56;5138719;27;20176;-67
2022/11/26 05:42:37;;;;;;;22.10;12.43;;;;;;;5.64;88.86;102442.97;5119655;27;20241;-67
2022/11/26 05:45:05;;;;;;;20.80;11.67;;;;;;;5.62;88.74;102444.78;5138090;27;20257;-67
2022/11/26 05:47:31;;;;;;;22.23;12.80;;;;;;;5.65;88.78;102447.34;5138242;27;20198;-67
2022/11/26 05:49:57;;;;;;;23.80;10.77;;;;;;;5.67;88.67;102446.41;5138226;27;20276;-67
2022/11/26 05:52:24;;;;;;;21.97;10.27;;;;;;;5.67;88.59;102451.72;5137922;27;20275;-66
2022/11/26 05:54:50;;;;;;;31.63;12.63;;;;;;;5.69;89.10;102454.34;5137761;27;20215;-67
2022/11/26 05:57:18;;;;;;;21.27;12.23;;;;;;;5.83;88.81;102456.69;5137802;27;20186;-66
2022/11/26 05:59:47;;;;;;;25.70;11.07;;;;;;;5.80;88.98;102454.13;5137784;27;20189;-66
2022/11/26 06:02:14;;;;;;;16.00;11.70;;;;;;;5.81;88.98;102455.84;5137702;27;20276;-66
2022/11/26 06:04:42;;;;;;;26.67;12.77;;;;;;;5.75;88.98;102457.75;5137582;27;20233;-66
2022/11/26 06:07:09;;;;;;;37.13;12.33;;;;;;;5.89;88.66;102457.44;5137810;27;20576;-66
2022/11/26 06:09:35;;;;;;;29.27;12.33;;;;;;;5.90;88.53;102458.28;5137597;27;20195;-66
2022/11/26 06:12:03;;;;;;;31.93;12.13;;;;;;;5.95;88.71;102451.09;5119399;27;20188;-66
2022/11/26 06:14:29;;;;;;;25.60;11.70;;;;;;;5.90;88.36;102466.28;5137449;27;20299;-66
2022/11/26 06:16:55;;;;;;;26.50;11.57;;;;;;;5.86;88.61;102459.28;5137482;27;20642;-66
2022/11/26 06:19:22;;;;;;;22.83;11.40;;;;;;;5.81;88.68;102464.69;5137432;27;20185;-66
2022/11/26 06:21:48;;;;;;;21.57;11.90;;;;;;;5.76;88.65;102461.28;5136314;27;20192;-66
2022/11/26 06:24:15;;;;;;;31.03;14.20;;;;;;;5.77;88.81;102460.38;5136011;28;20213;-66
2022/11/26 06:26:41;;;;;;;38.40;16.13;;;;;;;5.69;88.71;102467.66;5136220;28;20640;-66
2022/11/26 06:29:07;;;;;;;29.90;16.03;;;;;;;5.76;88.60;102474.56;5136304;28;20267;-66
2022/11/26 06:31:34;;;;;;;33.07;14.57;;;;;;;5.67;88.71;102473.00;5136268;28;20185;-66
2022/11/26 06:34:00;;;;;;;22.30;12.53;;;;;;;5.75;88.60;102463.06;5135919;28;20215;-66
2022/11/26 06:36:27;;;;;;;24.63;12.10;;;;;;;5.69;88.28;102467.66;5135859;28;20731;-66
2022/11/26 06:38:53;;;;;;;15.70;10.50;;;;;;;5.70;88.43;102467.63;5135453;27;20266;-66
2022/11/26 06:41:19;;;;;;;28.47;11.47;;;;;;;5.70;88.31;102480.03;5136358;28;20636;-66
2022/11/26 06:43:46;;;;;;;19.83;11.37;;;;;;;5.69;88.19;102486.25;5135680;28;20291;-66
2022/11/26 06:46:13;;;;;;;26.70;11.33;;;;;;;5.60;88.54;102487.31;5135888;28;20196;-66
2022/11/26 06:48:40;;;;;;;20.83;11.00;;;;;;;5.61;88.25;102482.91;5135656;28;20188;-66
2022/11/26 06:51:11;;;;;;;18.10;10.27;;;;;;;5.63;88.71;102483.75;5135969;28;20598;-66
2022/11/26 06:53:38;;;;;;;26.43;11.40;;;;;;;5.64;88.35;102478.38;5135929;28;20204;-67
2022/11/26 06:56:07;;;;;;;20.97;10.80;;;;;;;5.60;87.95;102482.00;5135551;28;20185;-67
2022/11/26 06:58:33;;;;;;;20.07;11.13;;;;;;;5.49;87.70;102482.25;5135525;28;20264;-66
2022/11/26 07:01:09;;;;;;;23.70;11.17;;;;;;;5.42;87.58;102495.72;5135521;28;20556;-66
2022/11/26 07:03:36;;;;;;;18.60;10.50;;;;;;;5.35;87.94;102499.44;5135641;28;20215;-66
2022/11/26 07:06:03;;;;;;;27.30;11.50;;;;;;;5.24;87.83;102491.66;5135703;28;20291;-66
2022/11/26 07:08:29;;;;;;;17.63;11.10;;;;;;;5.16;87.79;102493.63;5135298;28;20287;-66
2022/11/26 07:11:03;;;;;;;26.57;10.97;;;;;;;5.09;87.43;102492.88;5135602;28;20185;-66
2022/11/26 07:13:29;;;;;;;15.07;10.13;;;;;;;4.98;87.83;102490.44;5135543;28;20202;-66
2022/11/26 07:16:01;;;;;;;18.60;11.10;;;;;;;4.89;87.24;102506.53;5135298;28;20639;-66
2022/11/26 07:18:28;;;;;;;15.80;9.60;;;;;;;4.87;87.90;102503.91;5135149;28;20169;-66
2022/11/26 07:20:55;;;;;;;27.97;11.70;;;;;;;4.90;87.84;102509.16;5135572;27;20195;-66
2022/11/26 07:23:21;;;;;;;23.67;11.07;;;;;;;4.87;88.02;102511.00;5136113;27;20283;-66
2022/11/26 07:25:48;;;;;;;27.63;11.13;;;;;;;4.88;87.69;102513.63;5136322;27;20188;-66
2022/11/26 07:28:14;;;;;;;20.77;13.23;;;;;;;4.93;88.31;102528.59;5136289;27;20207;-67
2022/11/26 07:30:41;;;;;;;26.83;12.17;;;;;;;4.94;87.90;102533.88;5136013;27;20276;-67
2022/11/26 07:33:07;;;;;;;34.03;12.30;;;;;;;4.98;88.12;102532.91;5135934;27;20208;-67
2022/11/26 07:35:33;;;;;;;17.57;11.13;;;;;;;4.97;88.34;102533.81;5136414;27;20275;-67
2022/11/26 07:38:00;;;;;;;17.03;10.80;;;;;;;4.94;87.48;102541.84;5135869;27;20271;-67
2022/11/26 07:40:26;;;;;;;20.83;11.23;;;;;;;4.89;88.21;102549.88;5136364;27;20187;-67
2022/11/26 07:42:53;;;;;;;15.00;11.17;;;;;;;4.90;87.59;102556.94;5135618;27;20184;-67
2022/11/26 07:45:23;;;;;;;16.83;10.97;;;;;;;4.94;88.21;102552.47;5136556;27;20180;-67
2022/11/26 07:47:49;;;;;;;18.70;10.17;;;;;;;4.96;88.20;102548.00;5135880;27;20574;-67
2022/11/26 07:50:15;;;;;;;31.90;12.50;;;;;;;5.07;88.12;102551.31;5135482;27;20183;-67
2022/11/26 07:52:42;;;;;;;20.23;11.13;;;;;;;5.07;88.32;102551.31;5134788;27;20264;-66
2022/11/26 07:55:08;;;;;;;20.97;11.83;;;;;;;5.14;88.07;102549.41;5135509;27;20735;-66
2022/11/26 07:57:38;;;;;;;20.70;12.03;;;;;;;5.12;88.05;102540.59;5135661;27;20177;-66
2022/11/26 08:00:05;;;;;;;20.67;11.90;;;;;;;5.30;88.53;102547.34;5135433;27;20615;-67
2022/11/26 08:02:37;;;;;;;23.53;11.77;;;;;;;5.40;88.97;102548.00;5135394;27;20218;-68
2022/11/26 08:05:04;;;;;;;28.47;12.87;;;;;;;5.50;89.33;102549.56;5135917;27;20719;-68
2022/11/26 08:07:30;;;;;;;19.93;11.60;;;;;;;5.56;89.26;102551.25;5135525;27;20257;-67
2022/11/26 08:09:57;;;;;;;33.20;12.03;;;;;;;5.61;89.24;102547.56;5135243;27;20181;-68
2022/11/26 08:12:23;;;;;;;27.53;11.90;;;;;;;5.71;89.06;102541.13;5135187;27;20180;-68
2022/11/26 08:14:50;;;;;;;36.30;12.73;;;;;;;5.75;89.10;102547.28;5136129;27;20285;-68
2022/11/26 08:17:16;;;;;;;36.33;12.10;;;;;;;5.78;89.00;102536.56;5135080;27;20211;-68
2022/11/26 08:19:42;;;;;;;22.73;11.57;;;;;;;5.80;89.02;102537.41;5135332;27;20729;-68
2022/11/26 08:22:09;;;;;;;26.93;12.60;;;;;;;5.90;89.04;102546.03;5135192;27;20271;-68
2022/11/26 08:24:35;;;;;;;31.47;12.17;;;;;;;5.99;89.15;102551.19;5134880;27;20208;-68
2022/11/26 08:27:02;;;;;;;21.60;11.37;;;;;;;6.12;89.00;102544.66;5135133;27;20287;-68
2022/11/26 08:29:28;;;;;;;22.67;11.67;;;;;;;6.15;88.34;102549.03;5134877;27;20183;-68
2022/11/26 08:31:55;;;;;;;29.17;12.00;;;;;;;6.21;88.52;102548.88;5135366;27;20212;-68
2022/11/26 08:34:22;;;;;;;23.87;12.63;;;;;;;6.28;88.18;102549.63;5134968;27;20634;-68
2022/11/26 08:36:48;;;;;;;21.30;11.60;;;;;;;6.39;88.04;102553.78;5134750;27;20185;-68
2022/11/26 08:39:16;;;;;;;28.13;12.50;;;;;;;6.39;87.98;102555.53;5134977;27;20267;-68
2022/11/26 08:41:43;;;;;;;26.23;14.03;;;;;;;6.48;87.60;102559.75;5135213;27;20192;-68
2022/11/26 08:44:18;;;;;;;32.50;12.10;;;;;;;6.51;87.59;102557.00;5134772;27;20257;-68
2022/11/26 08:46:44;;;;;;;23.93;11.33;;;;;;;6.64;87.72;102571.78;5134682;27;20187;-67
2022/11/26 08:49:12;;;;;;;31.27;13.00;;;;;;;6.73;87.28;102563.56;5134779;27;20184;-67
2022/11/26 08:51:38;;;;;;;23.37;10.90;;;;;;;6.79;87.06;102568.69;5134512;27;20212;-67
2022/11/26 08:54:05;;;;;;;14.60;10.07;;;;;;;6.89;87.21;102566.66;5134376;27;20326;-68
2022/11/26 08:56:33;;;;;;;19.80;10.03;;;;;;;6.87;86.49;102575.63;5134423;27;20266;-68
2022/11/26 08:58:59;;;;;;;17.50;9.33;;;;;;;6.90;85.65;102565.78;5134964;27;20563;-68
2022/11/26 09:01:28;;;;;;;13.73;9.30;;;;;;;7.01;85.49;102574.31;5134398;27;20613;-68
2022/11/26 09:03:58;;;;;;;17.27;10.00;;;;;;;7.09;85.08;102574.16;5134567;27;20208;-68
2022/11/26 09:06:26;;;;;;;19.23;10.43;;;;;;;7.13;84.96;102577.56;5134579;27;20729;-68
2022/11/26 09:09:11;;;;;;;20.17;8.63;;;;;;;7.20;85.12;102582.69;5134148;27;20196;-68
2022/11/26 09:11:44;;;;;;;15.67;8.53;;;;;;;7.25;83.88;102582.56;5134587;27;20181;-68
2022/11/26 09:14:11;;;;;;;11.23;8.47;;;;;;;7.44;83.57;102589.13;5134206;28;20243;-68
2022/11/26 09:16:38;;;;;;;15.73;8.17;;;;;;;7.58;83.02;102587.88;5134190;28;20184;-68
2022/11/26 09:19:06;;;;;;;19.23;8.37;;;;;;;7.59;82.94;102586.94;5134157;28;20184;-68
2022/11/26 09:21:34;;;;;;;23.37;7.63;;;;;;;7.67;82.28;102596.47;5134086;28;20275;-68
2022/11/26 09:24:01;;;;;;;20.67;7.60;;;;;;;7.68;81.44;102594.66;5134190;28;20419;-67
2022/11/26 09:26:30;;;;;;;17.73;7.43;;;;;;;7.76;81.63;102594.47;5134079;28;20188;-67
2022/11/26 09:28:56;;;;;;;17.13;8.10;;;;;;;7.79;81.07;102592.56;5134294;28;20203;-67
2022/11/26 09:31:23;;;;;;;11.67;7.17;;;;;;;7.71;80.99;102583.94;5134315;28;20181;-67
2022/11/26 09:33:50;;;;;;;11.17;6.73;;;;;;;7.79;80.03;102586.34;5133940;28;20200;-68
2022/11/26 09:36:17;;;;;;;8.27;6.73;;;;;;;7.83;80.15;102586.22;5133990;28;20184;-68
2022/11/26 09:38:44;;;;;;;15.20;6.80;;;;;;;7.88;79.91;102586.09;5133979;28;20263;-68
2022/11/26 09:41:44;;;;;;;16.57;6.70;;;;;;;7.99;80.36;102594.63;5133958;28;20189;-68
2022/11/26 09:44:46;;;;;;;15.83;6.60;;;;;;;8.08;79.94;102591.66;5133917;28;20279;-68
2022/11/26 09:47:44;;;;;;;16.63;6.47;;;;;;;8.26;80.04;102589.31;5134176;28;20696;-68
2022/11/26 09:50:13;;;;;;;15.93;7.07;;;;;;;8.30;79.54;102599.84;5114310;28;20287;-68
2022/11/26 09:52:54;;;;;;;13.93;7.33;;;;;;;8.41;78.83;102602.22;5133770;28;20186;-68
2022/11/26 09:55:32;;;;;;;10.43;6.57;;;;;;;8.54;78.18;102601.81;5134515;28;20259;-68
2022/11/26 09:58:19;;;;;;;7.40;6.50;;;;;;;8.64;77.74;102609.50;5134384;28;20654;-68
2022/11/26 10:00:56;;;;;;;10.67;7.00;;;;;;;8.75;78.06;102594.91;5133836;28;20177;-68
2022/11/26 10:03:30;;;;;;;9.40;5.97;;;;;;;8.80;77.64;102598.28;5133992;28;20220;-68
2022/11/26 10:06:00;;;;;;;10.57;6.47;;;;;;;8.89;76.67;102604.19;5134104;28;20177;-68
2022/11/26 10:08:44;;;;;;;16.50;5.87;;;;;;;8.87;76.46;102594.47;5133700;28;20201;-68
2022/11/26 10:11:35;;;;;;;6.13;5.53;;;;;;;8.87;76.61;102595.34;5133991;28;20557;-68
2022/11/26 10:14:29;;;;;;;7.03;5.97;;;;;;;8.89;76.24;102587.28;5085978;27;20234;-68
2022/11/26 10:17:11;;;;;;;6.90;5.97;;;;;;;8.89;75.88;102588.16;5138013;27;20181;-68
2022/11/26 10:19:59;;;;;;;10.03;5.33;;;;;;;8.96;75.98;102587.94;5137744;27;20164;-68
2022/11/26 10:22:31;;;;;;;8.43;4.73;;;;;;;8.91;76.01;102593.44;5137300;27;20264;-68
2022/11/26 10:24:58;;;;;;;5.20;4.60;;;;;;;8.84;76.05;102594.59;5137298;27;20545;-68
2022/11/26 10:27:29;;;;;;;9.37;5.17;;;;;;;8.80;75.55;102587.59;5137345;27;20204;-68
2022/11/26 10:30:19;;;;;;;8.70;4.57;;;;;;;8.81;75.52;102589.31;5137455;27;20177;-67
2022/11/26 10:32:48;;;;;;;7.40;4.57;;;;;;;8.79;76.10;102591.16;5137698;27;20188;-68
2022/11/26 10:35:20;;;;;;;6.60;4.40;;;;;;;8.90;76.14;102597.91;5137309;27;20188;-68
2022/11/26 10:37:47;;;;;;;10.13;4.57;;;;;;;8.95;75.52;102600.41;5137489;27;20256;-67
2022/11/26 10:40:25;;;;;;;6.40;4.40;;;;;;;8.97;75.76;102608.38;5136989;27;20689;-67
2022/11/26 10:43:07;;;;;;;8.57;4.40;;;;;;;8.99;76.07;102607.41;5119065;27;20268;-68
2022/11/26 10:45:35;;;;;;;8.77;5.23;;;;;;;8.99;76.36;102604.72;5137139;27;20188;-68
2022/11/26 10:48:20;;;;;;;9.90;4.60;;;;;;;9.10;75.99;102599.03;5137097;27;20283;-68
2022/11/26 10:50:56;;;;;;;11.77;5.03;;;;;;;9.22;75.83;102606.59;5137057;27;20187;-68
2022/11/26 10:53:24;;;;;;;13.73;5.33;;;;;;;9.23;75.48;102597.66;5137222;27;20547;-68
2022/11/26 10:55:55;;;;;;;9.97;5.20;;;;;;;9.32;75.47;102594.66;5136615;27;20191;-68
2022/11/26 10:58:41;;;;;;;4.67;4.30;;;;;;;9.45;75.15;102588.84;5101861;27;20176;-68
2022/11/26 11:01:08;;;;;;;6.97;4.60;;;;;;;9.41;74.68;102595.22;5136628;27;20251;-68
2022/11/26 11:03:51;;;;;;;12.93;5.07;;;;;;;9.48;74.72;102588.72;5136723;27;20236;-68
2022/11/26 11:06:39;;;;;;;14.27;4.93;;;;;;;9.48;74.56;102588.72;5136484;27;20658;-68
2022/11/26 11:09:27;;;;;;;7.27;4.63;;;;;;;9.55;74.46;102574.19;5136433;27;20201;-68
2022/11/26 11:12:12;;;;;;;8.03;4.10;;;;;;;9.64;74.67;102576.50;5136698;27;20171;-68
2022/11/26 11:14:40;;;;;;;8.60;4.33;;;;;;;9.57;74.41;102575.00;5136546;27;20211;-68
2022/11/26 11:17:32;;;;;;;5.30;4.13;;;;;;;9.61;74.91;102573.09;5136489;27;20194;-68
2022/11/26 11:20:13;;;;;;;6.40;3.73;;;;;;;9.68;74.34;102569.25;5123260;27;20714;-68
2022/11/26 11:22:44;;;;;;;4.43;3.57;;;;;;;9.75;74.88;102571.63;5136738;27;20205;-68
2022/11/26 11:25:22;;;;;;;6.67;3.83;;;;;;;9.73;74.37;102565.47;5136081;27;20263;-68
2022/11/26 11:27:49;;;;;;;7.30;3.83;;;;;;;9.82;74.09;102568.69;5135923;27;20563;-68
2022/11/26 11:30:28;;;;;;;12.20;3.90;;;;;;;9.79;74.29;102570.59;5136315;27;20275;-68
2022/11/26 11:32:56;;;;;;;9.40;3.90;;;;;;;9.69;74.26;102574.53;5135894;27;20190;-68